Weather at Pile Point Airport [CLOSED]

Public forecast

Using degrees Fahrenheit for public forecast. Weather courtesy of forecast.io.

Closest aviation weather report (METAR) to Pile Point Airport

Closest report is Friday Harbor Airport, 3.4 nm (6.3 km) NE.

2024/05/21 00:53 (retrieved 21 minutes ago)

KFHR 210053Z AUTO 21009KT 10SM CLR 16/06 A3020 RMK AO2 SLP226 T01560061

Closest aviation forecast (TAF) to Pile Point Airport

Closest forecast is Victoria Harbour Seaplane Base, 11.8 nm (21.9 km) WSW.

2024/05/20 21:00 (retrieved 4 hours ago)

TAF CYWH 202040Z 2021/2104 18008KT P6SM FEW030 BKN230 FM210000 22015KT P6SM BKN120 RMK NXT FCST BY 211400Z